createdAt,value
2019-01-15T00:02:23.624Z,87.90
2019-01-15T00:04:51.989Z,88.20
2019-01-15T00:07:20.355Z,88.20
2019-01-15T00:09:48.808Z,88.50
2019-01-15T00:12:17.182Z,88.30
2019-01-15T00:14:45.875Z,88.60
2019-01-15T00:17:15.247Z,88.60
2019-01-15T00:19:43.613Z,88.80
2019-01-15T00:22:11.988Z,89.30
2019-01-15T00:24:40.440Z,88.50
2019-01-15T00:27:09.332Z,88.80
2019-01-15T00:29:37.694Z,89.00
2019-01-15T00:32:06.101Z,89.50
2019-01-15T00:34:34.511Z,89.80
2019-01-15T00:37:02.895Z,90.10
2019-01-15T00:39:32.545Z,89.80
2019-01-15T00:42:00.914Z,90.00
2019-01-15T00:44:29.273Z,90.00
2019-01-15T00:46:57.691Z,90.00
2019-01-15T00:49:26.058Z,90.40
2019-01-15T00:51:54.418Z,90.10
2019-01-15T00:54:22.812Z,90.30
2019-01-15T00:56:51.180Z,90.60
2019-01-15T00:59:19.543Z,90.60
2019-01-15T01:01:49.011Z,90.40
2019-01-15T01:04:17.376Z,90.50
2019-01-15T01:06:45.739Z,90.50
2019-01-15T01:09:14.323Z,90.20
2019-01-15T01:11:42.679Z,90.10
2019-01-15T01:14:11.099Z,90.10
2019-01-15T01:16:39.499Z,89.90
2019-01-15T01:19:07.864Z,89.70
2019-01-15T01:21:36.227Z,89.50
2019-01-15T01:24:04.699Z,89.60
2019-01-15T01:26:33.072Z,89.20
2019-01-15T01:29:02.733Z,88.80
2019-01-15T01:31:31.127Z,88.80
2019-01-15T01:33:59.491Z,88.80
2019-01-15T01:36:28.147Z,88.60
2019-01-15T01:38:56.803Z,88.60
2019-01-15T01:41:25.165Z,88.30
2019-01-15T01:43:53.548Z,88.40
2019-01-15T01:46:21.950Z,88.30
2019-01-15T01:48:50.319Z,88.50
2019-01-15T01:51:18.683Z,88.40
2019-01-15T01:53:47.019Z,88.40
2019-01-15T01:56:15.387Z,88.40
2019-01-15T01:58:43.856Z,88.60
2019-01-15T02:01:12.863Z,88.50
2019-01-15T02:03:41.296Z,88.10
2019-01-15T02:06:09.660Z,88.10
2019-01-15T02:08:38.056Z,88.30
2019-01-15T02:11:06.429Z,88.70
2019-01-15T02:13:34.791Z,88.60
2019-01-15T02:16:03.195Z,88.60
2019-01-15T02:18:31.555Z,89.20
2019-01-15T02:20:59.928Z,88.30
2019-01-15T02:23:29.771Z,88.30
2019-01-15T02:25:58.138Z,88.00
2019-01-15T02:28:26.500Z,87.90
2019-01-15T02:30:56.191Z,87.60
2019-01-15T02:33:24.555Z,87.40
2019-01-15T02:35:52.923Z,87.80
2019-01-15T02:38:21.320Z,87.60
2019-01-15T02:40:49.682Z,87.80
2019-01-15T02:43:18.051Z,87.80
2019-01-15T02:45:46.468Z,88.10
2019-01-15T02:48:14.836Z,87.60
2019-01-15T02:50:43.199Z,87.50
2019-01-15T02:53:11.607Z,87.20
2019-01-15T02:55:40.343Z,86.80
2019-01-15T02:58:08.707Z,87.40
2019-01-15T03:00:37.842Z,87.80
2019-01-15T03:03:06.212Z,87.40
2019-01-15T03:05:34.586Z,87.30
2019-01-15T03:08:02.987Z,87.30
2019-01-15T03:10:31.446Z,87.40
2019-01-15T03:12:59.896Z,87.50
2019-01-15T03:15:28.287Z,87.70
2019-01-15T03:17:56.679Z,87.90
2019-01-15T03:20:25.019Z,87.90
2019-01-15T03:22:53.552Z,88.00
2019-01-15T03:25:21.916Z,87.20
2019-01-15T03:27:50.289Z,86.90
2019-01-15T03:30:20.630Z,87.00
2019-01-15T03:32:50.545Z,87.40
2019-01-15T03:35:19.016Z,87.10
2019-01-15T03:37:47.435Z,87.10
2019-01-15T03:40:18.405Z,86.40
2019-01-15T03:42:46.770Z,86.20
2019-01-15T03:45:16.677Z,86.00
2019-01-15T03:47:45.039Z,85.40
2019-01-15T03:50:13.871Z,85.00
2019-01-15T03:52:42.454Z,85.30
2019-01-15T03:55:12.164Z,84.20
2019-01-15T03:57:40.524Z,84.20
2019-01-15T04:00:17.876Z,84.10
2019-01-15T04:02:46.979Z,84.40
2019-01-15T04:05:16.933Z,84.20
2019-01-15T04:07:46.323Z,84.30
2019-01-15T04:10:14.691Z,84.50
2019-01-15T04:12:43.395Z,84.50
2019-01-15T04:15:12.948Z,85.40
2019-01-15T04:17:41.317Z,84.30
2019-01-15T04:20:14.670Z,84.30
2019-01-15T04:22:43.651Z,84.50
2019-01-15T04:25:13.053Z,84.70
2019-01-15T04:27:41.429Z,84.30
2019-01-15T04:30:15.848Z,84.40
2019-01-15T04:32:44.208Z,84.20
2019-01-15T04:35:12.775Z,84.10
2019-01-15T04:37:41.204Z,83.80
2019-01-15T04:40:17.684Z,83.50
2019-01-15T04:42:47.132Z,83.40
2019-01-15T04:45:17.529Z,83.70
2019-01-15T04:47:46.247Z,83.50
2019-01-15T04:50:15.651Z,84.70
2019-01-15T04:52:45.161Z,83.70
2019-01-15T04:55:13.524Z,83.80
2019-01-15T04:57:41.924Z,83.70
2019-01-15T05:00:18.587Z,83.60
2019-01-15T05:02:48.242Z,83.20
2019-01-15T05:05:16.775Z,82.90
2019-01-15T05:07:45.144Z,83.10
2019-01-15T05:10:15.193Z,83.10
2019-01-15T05:12:43.551Z,83.00
2019-01-15T05:15:13.962Z,83.20
2019-01-15T05:17:42.366Z,83.00
2019-01-15T05:20:13.527Z,83.10
2019-01-15T05:22:41.892Z,83.00
2019-01-15T05:25:13.586Z,82.80
2019-01-15T05:27:41.962Z,82.90
2019-01-15T05:30:15.799Z,83.50
2019-01-15T05:32:44.220Z,82.80
2019-01-15T05:35:12.587Z,82.70
2019-01-15T05:37:43.076Z,82.50
2019-01-15T05:40:13.210Z,82.50
2019-01-15T05:42:41.644Z,82.80
2019-01-15T05:45:14.283Z,83.40
2019-01-15T05:47:44.139Z,82.50
2019-01-15T05:50:14.148Z,82.30
2019-01-15T05:52:42.519Z,82.90
2019-01-15T05:55:10.935Z,83.20
2019-01-15T05:57:39.299Z,83.50
2019-01-15T06:00:18.351Z,83.40
2019-01-15T06:02:46.723Z,83.40
2019-01-15T06:05:15.100Z,83.50
2019-01-15T06:08:03.065Z,83.60
2019-01-15T06:10:31.380Z,83.50
2019-01-15T06:12:59.750Z,84.10
2019-01-15T06:15:28.156Z,84.20
2019-01-15T06:17:56.523Z,84.40
2019-01-15T06:20:24.879Z,84.30
2019-01-15T06:22:53.299Z,84.40
2019-01-15T06:25:21.681Z,84.40
2019-01-15T06:27:50.023Z,84.50
2019-01-15T06:30:23.847Z,84.20
2019-01-15T06:32:52.559Z,84.60
2019-01-15T06:35:20.928Z,84.70
2019-01-15T06:37:49.500Z,84.80
2019-01-15T06:40:20.443Z,84.30
2019-01-15T06:42:49.132Z,84.70
2019-01-15T06:45:23.445Z,84.40
2019-01-15T06:47:51.812Z,84.90
2019-01-15T06:50:20.187Z,84.20
2019-01-15T06:52:49.083Z,84.00
2019-01-15T06:55:19.578Z,83.80
2019-01-15T06:57:47.939Z,84.10
2019-01-15T07:00:22.132Z,84.00
2019-01-15T07:02:50.496Z,84.10
2019-01-15T07:05:18.937Z,84.00
2019-01-15T07:07:47.337Z,84.00
2019-01-15T07:10:21.347Z,84.20
2019-01-15T07:12:49.711Z,84.00
2019-01-15T07:15:18.111Z,84.20
2019-01-15T07:17:46.479Z,83.80
2019-01-15T07:20:16.279Z,83.60
2019-01-15T07:22:44.688Z,83.80
2019-01-15T07:25:18.610Z,83.90
2019-01-15T07:27:46.972Z,84.00
2019-01-15T07:30:24.705Z,85.10
2019-01-15T07:32:53.063Z,84.20
2019-01-15T07:35:21.424Z,84.40
2019-01-15T07:37:49.835Z,84.50
2019-01-15T07:40:18.308Z,85.20
2019-01-15T07:42:47.216Z,84.40
2019-01-15T07:45:15.639Z,84.50
2019-01-15T07:47:44.008Z,83.90
2019-01-15T07:50:15.013Z,84.30
2019-01-15T07:52:44.035Z,85.00
2019-01-15T07:55:14.836Z,85.50
2019-01-15T07:57:43.203Z,86.40
2019-01-15T08:00:17.550Z,86.40
2019-01-15T08:02:45.990Z,87.10
2019-01-15T08:05:16.691Z,87.40
2019-01-15T08:07:46.614Z,87.50
2019-01-15T08:10:16.819Z,87.70
2019-01-15T08:12:45.305Z,88.10
2019-01-15T08:15:21.705Z,87.90
2019-01-15T08:17:50.071Z,88.20
2019-01-15T08:20:18.539Z,88.10
2019-01-15T08:22:47.659Z,87.90
2019-01-15T08:25:17.073Z,88.00
2019-01-15T08:27:45.436Z,87.30
2019-01-15T08:30:22.246Z,87.00
2019-01-15T08:32:50.619Z,86.90
2019-01-15T08:35:19.995Z,87.20
2019-01-15T08:37:48.395Z,87.30
2019-01-15T08:40:18.008Z,87.70
2019-01-15T08:42:47.243Z,87.60
2019-01-15T08:45:17.995Z,87.50
2019-01-15T08:47:48.006Z,88.10
2019-01-15T08:50:19.512Z,88.00
2019-01-15T08:52:47.891Z,88.20
2019-01-15T08:55:16.259Z,87.80
2019-01-15T08:57:44.668Z,88.40
2019-01-15T09:00:14.675Z,88.40
2019-01-15T09:02:43.043Z,88.00
2019-01-15T09:05:12.483Z,87.80
2019-01-15T09:07:40.843Z,88.20
2019-01-15T09:10:12.051Z,87.80
2019-01-15T09:12:40.454Z,87.50
2019-01-15T09:15:11.763Z,87.50
2019-01-15T09:17:40.131Z,87.30
2019-01-15T09:20:11.916Z,87.60
2019-01-15T09:22:40.279Z,87.70
2019-01-15T09:25:08.735Z,88.00
2019-01-15T09:27:38.056Z,87.90
2019-01-15T09:30:09.785Z,87.50
2019-01-15T09:32:38.147Z,87.20
2019-01-15T09:35:07.106Z,86.90
2019-01-15T09:37:35.743Z,87.00
2019-01-15T09:40:07.055Z,88.00
2019-01-15T09:42:35.456Z,86.60
2019-01-15T09:45:05.068Z,86.30
2019-01-15T09:47:34.943Z,86.30
2019-01-15T09:50:03.635Z,86.30
2019-01-15T09:52:31.999Z,86.20
2019-01-15T09:55:00.368Z,86.50
2019-01-15T09:57:28.772Z,86.60
2019-01-15T09:59:57.141Z,86.50
2019-01-15T10:02:25.508Z,86.20
2019-01-15T10:04:53.916Z,85.70
2019-01-15T10:07:22.283Z,85.70
2019-01-15T10:09:50.665Z,85.90
2019-01-15T10:12:19.287Z,85.50
2019-01-15T10:14:47.656Z,85.20
2019-01-15T10:17:16.019Z,86.10
2019-01-15T10:19:45.265Z,85.40
2019-01-15T10:22:14.156Z,85.90
2019-01-15T10:24:42.895Z,85.20
2019-01-15T10:27:11.670Z,85.40
2019-01-15T10:29:40.904Z,84.60
2019-01-15T10:32:25.386Z,84.70
2019-01-15T10:34:55.088Z,84.10
2019-01-15T10:37:23.463Z,84.40
2019-01-15T10:39:51.866Z,84.40
2019-01-15T10:42:20.235Z,84.20
2019-01-15T10:44:48.972Z,84.10
2019-01-15T10:47:17.407Z,84.20
2019-01-15T10:49:46.459Z,84.30
2019-01-15T10:52:14.819Z,84.10
2019-01-15T10:54:43.699Z,84.10
2019-01-15T10:57:12.083Z,84.30
2019-01-15T10:59:40.836Z,84.60
2019-01-15T11:02:09.252Z,83.50
2019-01-15T11:04:37.623Z,83.60
2019-01-15T11:07:06.007Z,83.50
2019-01-15T11:09:34.419Z,83.60
2019-01-15T11:12:02.786Z,83.80
2019-01-15T11:14:31.343Z,84.10
2019-01-15T11:17:00.171Z,83.80
2019-01-15T11:19:28.535Z,84.10
2019-01-15T11:21:56.899Z,84.10
2019-01-15T11:24:25.308Z,83.60
2019-01-15T11:26:53.675Z,83.70
2019-01-15T11:29:22.044Z,84.70
2019-01-15T11:31:50.443Z,84.10
2019-01-15T11:34:18.818Z,84.40
2019-01-15T11:36:47.183Z,83.50
2019-01-15T11:39:16.943Z,84.20
2019-01-15T11:41:45.300Z,84.30
2019-01-15T11:44:13.671Z,83.80
2019-01-15T11:46:42.070Z,84.20
2019-01-15T11:49:10.437Z,85.00
2019-01-15T11:51:39.515Z,84.90
2019-01-15T11:54:07.932Z,84.50
2019-01-15T11:56:36.300Z,84.90
2019-01-15T11:59:04.935Z,83.50
2019-01-15T12:01:34.966Z,83.80
2019-01-15T12:04:04.975Z,83.50
2019-01-15T12:06:40.735Z,83.90
2019-01-15T12:09:17.231Z,83.50
2019-01-15T12:11:47.991Z,82.80
2019-01-15T12:14:23.895Z,83.60
2019-01-15T12:16:56.787Z,83.50
2019-01-15T12:19:42.944Z,83.40
2019-01-15T12:22:12.987Z,84.10
2019-01-15T12:24:59.550Z,82.90
2019-01-15T12:27:30.211Z,83.30
2019-01-15T12:30:05.983Z,82.60
2019-01-15T12:32:36.027Z,82.90
2019-01-15T12:35:08.071Z,82.40
2019-01-15T12:37:53.191Z,82.10
2019-01-15T12:40:29.179Z,82.00
2019-01-15T12:43:00.635Z,81.60
2019-01-15T12:45:39.660Z,81.50
2019-01-15T12:48:26.105Z,81.90
2019-01-15T12:51:05.107Z,82.20
2019-01-15T12:53:42.028Z,81.70
2019-01-15T12:56:21.215Z,81.70
2019-01-15T12:58:52.631Z,82.10
2019-01-15T13:01:25.300Z,82.50
2019-01-15T13:04:11.623Z,82.80
2019-01-15T13:06:58.228Z,83.90
2019-01-15T13:09:31.255Z,83.90
2019-01-15T13:12:07.007Z,83.60
2019-01-15T13:14:54.256Z,83.70
2019-01-15T13:17:30.268Z,83.10
2019-01-15T13:20:15.263Z,83.40
2019-01-15T13:23:00.195Z,82.40
2019-01-15T13:25:46.219Z,83.10
2019-01-15T13:28:22.104Z,82.60
2019-01-15T13:31:11.947Z,81.90
2019-01-15T13:33:54.387Z,82.00
2019-01-15T13:36:41.188Z,82.60
2019-01-15T13:39:14.295Z,82.40
2019-01-15T13:41:44.333Z,82.80
2019-01-15T13:44:14.335Z,81.90
2019-01-15T13:46:51.166Z,81.90
2019-01-15T13:49:24.079Z,81.40
2019-01-15T13:52:10.576Z,81.50
2019-01-15T13:54:41.731Z,81.70
2019-01-15T13:57:28.299Z,81.90
2019-01-15T14:00:13.536Z,82.90
2019-01-15T14:03:01.175Z,83.50
2019-01-15T14:05:37.246Z,83.30
2019-01-15T14:08:10.119Z,83.30
2019-01-15T14:10:42.783Z,84.20
2019-01-15T14:13:28.098Z,85.00
2019-01-15T14:15:58.115Z,85.90
2019-01-15T14:18:30.779Z,85.90
2019-01-15T14:21:14.399Z,85.70
2019-01-15T14:24:01.082Z,85.80
2019-01-15T14:26:34.100Z,86.50
2019-01-15T14:29:04.103Z,87.20
2019-01-15T14:31:46.319Z,88.00
2019-01-15T14:34:32.559Z,88.50
2019-01-15T14:37:12.245Z,88.70
2019-01-15T14:39:42.250Z,89.00
2019-01-15T14:42:18.481Z,88.90
2019-01-15T14:44:54.483Z,89.20
2019-01-15T14:47:36.532Z,89.40
2019-01-15T14:50:21.963Z,89.60
2019-01-15T14:52:55.444Z,90.10
2019-01-15T14:55:26.532Z,89.60
2019-01-15T14:57:59.291Z,89.30
2019-01-15T15:00:29.300Z,89.10
2019-01-15T15:03:05.532Z,88.50
2019-01-15T15:05:38.206Z,88.50
2019-01-15T15:08:24.867Z,88.20
2019-01-15T15:11:11.560Z,88.50
2019-01-15T15:13:51.792Z,88.50
2019-01-15T15:16:27.541Z,89.00
2019-01-15T15:19:12.515Z,89.10
2019-01-15T15:21:59.146Z,89.50
2019-01-15T15:24:44.984Z,90.10
2019-01-15T15:27:14.996Z,90.00
2019-01-15T15:29:45.004Z,89.80
2019-01-15T15:32:15.044Z,90.00
2019-01-15T15:34:54.228Z,90.10
2019-01-15T15:37:30.555Z,90.00
2019-01-15T15:40:17.003Z,90.00
2019-01-15T15:42:48.079Z,90.00
2019-01-15T15:45:20.783Z,89.40
2019-01-15T15:48:02.847Z,89.50
2019-01-15T15:50:33.211Z,89.20
2019-01-15T15:53:21.871Z,89.00
2019-01-15T15:55:55.197Z,89.30
2019-01-15T15:58:41.614Z,88.90
2019-01-15T16:01:14.307Z,88.50
2019-01-15T16:03:44.364Z,88.20
2019-01-15T16:06:30.905Z,88.20
2019-01-15T16:09:00.900Z,88.00
2019-01-15T16:11:46.091Z,88.20
2019-01-15T16:14:28.155Z,88.10
2019-01-15T16:17:04.664Z,88.00
2019-01-15T16:19:40.898Z,87.70
2019-01-15T16:22:14.052Z,87.30
2019-01-15T16:24:46.771Z,87.10
2019-01-15T16:27:16.783Z,87.30
2019-01-15T16:29:49.964Z,87.30
2019-01-15T16:32:19.967Z,87.00
2019-01-15T16:34:49.974Z,86.60
2019-01-15T16:37:20.799Z,86.60
2019-01-15T16:39:59.723Z,86.50
2019-01-15T16:42:46.415Z,86.40
2019-01-15T16:45:32.671Z,85.90
2019-01-15T16:48:14.583Z,86.30
2019-01-15T16:50:50.306Z,86.60
2019-01-15T16:53:27.230Z,85.90
2019-01-15T16:56:00.249Z,86.10
2019-01-15T16:58:42.348Z,86.50
2019-01-15T17:01:29.712Z,86.00
2019-01-15T17:04:15.983Z,86.40
2019-01-15T17:06:49.023Z,86.60
2019-01-15T17:09:23.623Z,86.60
2019-01-15T17:11:56.327Z,86.60
2019-01-15T17:14:32.132Z,86.90
2019-01-15T17:17:14.061Z,87.40
2019-01-15T17:19:50.321Z,86.60
2019-01-15T17:22:20.333Z,86.80
2019-01-15T17:24:53.279Z,86.60
2019-01-15T17:27:33.071Z,86.80
2019-01-15T17:30:18.091Z,87.00
2019-01-15T17:33:04.701Z,87.00
2019-01-15T17:35:37.752Z,87.00
2019-01-15T17:38:07.759Z,86.40
2019-01-15T17:40:52.783Z,86.50
2019-01-15T17:43:31.690Z,86.40
2019-01-15T17:46:14.435Z,86.30
2019-01-15T17:49:00.720Z,85.50
2019-01-15T17:51:30.762Z,85.80
2019-01-15T17:54:17.123Z,85.90
2019-01-15T17:56:59.227Z,85.80
2019-01-15T17:59:32.130Z,85.60
2019-01-15T18:02:05.024Z,85.90
2019-01-15T18:04:43.821Z,85.80
2019-01-15T18:07:13.867Z,86.20
2019-01-15T18:09:50.252Z,85.60
2019-01-15T18:12:20.299Z,85.90
2019-01-15T18:15:06.947Z,86.10
2019-01-15T18:17:46.779Z,86.20
2019-01-15T18:20:33.211Z,85.70
2019-01-15T18:23:06.071Z,85.70
2019-01-15T18:25:52.614Z,86.00
2019-01-15T18:28:34.634Z,86.20
2019-01-15T18:31:16.678Z,85.80
2019-01-15T18:33:53.119Z,86.10
2019-01-15T18:36:39.555Z,86.10
2019-01-15T18:39:28.103Z,86.30
2019-01-15T18:42:10.164Z,85.90
2019-01-15T18:44:40.200Z,86.10
2019-01-15T18:47:12.867Z,86.60
2019-01-15T18:49:46.395Z,86.60
2019-01-15T18:52:16.409Z,86.70
2019-01-15T18:55:02.735Z,86.60
2019-01-15T18:57:32.738Z,86.60
2019-01-15T19:00:19.071Z,86.90
2019-01-15T19:02:56.788Z,87.00
2019-01-15T19:05:30.168Z,87.10
2019-01-15T19:08:15.620Z,87.40
2019-01-15T19:10:51.266Z,87.10
2019-01-15T19:13:21.276Z,87.10
2019-01-15T19:16:03.595Z,87.10
2019-01-15T19:18:49.782Z,87.00
2019-01-15T19:21:20.944Z,86.90
2019-01-15T19:24:02.915Z,86.80
2019-01-15T19:26:49.354Z,86.90
2019-01-15T19:29:25.355Z,86.70
2019-01-15T19:32:07.555Z,87.00
2019-01-15T19:34:54.195Z,87.10
2019-01-15T19:37:25.539Z,87.10
2019-01-15T19:39:55.547Z,87.10
2019-01-15T19:42:34.911Z,87.10
2019-01-15T19:45:21.554Z,86.90
2019-01-15T19:47:51.602Z,87.20
2019-01-15T19:50:21.612Z,87.30
2019-01-15T19:53:08.369Z,87.50
2019-01-15T19:55:53.400Z,86.80
2019-01-15T19:58:26.411Z,87.30
2019-01-15T20:01:14.986Z,87.90
2019-01-15T20:03:45.631Z,88.50
2019-01-15T20:06:18.727Z,88.50
2019-01-15T20:09:05.764Z,89.10
2019-01-15T20:11:52.363Z,89.30
2019-01-15T20:14:40.813Z,89.50
2019-01-15T20:17:17.982Z,89.50
2019-01-15T20:19:48.667Z,89.10
2019-01-15T20:22:24.607Z,89.70
2019-01-15T20:25:04.623Z,89.60
2019-01-15T20:27:37.283Z,89.70
2019-01-15T20:30:19.619Z,90.00
2019-01-15T20:32:52.339Z,90.00
2019-01-15T20:35:38.916Z,90.20
2019-01-15T20:38:08.932Z,90.30
2019-01-15T20:40:38.944Z,90.60
2019-01-15T20:43:22.748Z,90.80
2019-01-15T20:46:10.801Z,90.90
2019-01-15T20:48:40.920Z,91.10
2019-01-15T20:51:13.631Z,91.30
2019-01-15T20:53:46.431Z,91.50
2019-01-15T20:56:16.443Z,91.70
2019-01-15T20:58:49.555Z,91.80
2019-01-15T21:01:26.368Z,91.70
2019-01-15T21:04:05.403Z,91.90
2019-01-15T21:06:53.119Z,91.80
2019-01-15T21:09:29.334Z,92.30
2019-01-15T21:12:15.608Z,91.90
2019-01-15T21:15:02.087Z,91.80
2019-01-15T21:17:35.565Z,91.90
2019-01-15T21:20:17.024Z,92.00
2019-01-15T21:22:55.969Z,92.10
2019-01-15T21:25:25.983Z,92.00
2019-01-15T21:28:07.727Z,91.90
2019-01-15T21:30:37.740Z,92.20
2019-01-15T21:33:07.750Z,92.30
2019-01-15T21:35:55.229Z,92.20
2019-01-15T21:38:31.207Z,92.20
2019-01-15T21:41:01.258Z,92.30
2019-01-15T21:43:31.268Z,92.50
2019-01-15T21:46:13.567Z,92.60
2019-01-15T21:48:43.580Z,92.70
2019-01-15T21:51:16.512Z,92.60
2019-01-15T21:53:50.447Z,92.80
2019-01-15T21:56:38.667Z,92.80
2019-01-15T21:59:24.911Z,92.90
2019-01-15T22:01:54.923Z,93.20
2019-01-15T22:04:36.749Z,93.20
2019-01-15T22:07:18.731Z,93.30
2019-01-15T22:09:52.799Z,93.30
2019-01-15T22:12:22.809Z,93.30
2019-01-15T22:14:52.812Z,93.20
2019-01-15T22:17:22.863Z,93.30
2019-01-15T22:20:01.804Z,93.30
2019-01-15T22:22:34.563Z,93.30
2019-01-15T22:25:20.960Z,93.30
2019-01-15T22:27:58.341Z,93.20
2019-01-15T22:30:28.367Z,93.30
2019-01-15T22:33:10.443Z,93.30
2019-01-15T22:35:40.820Z,93.30
2019-01-15T22:38:13.796Z,93.40
2019-01-15T22:40:43.846Z,93.50
2019-01-15T22:43:16.803Z,93.60
2019-01-15T22:46:05.279Z,93.70
2019-01-15T22:48:38.553Z,93.90
2019-01-15T22:51:17.783Z,93.60
2019-01-15T22:53:53.943Z,93.40
2019-01-15T22:56:23.987Z,93.60
2019-01-15T22:58:53.986Z,93.70
2019-01-15T23:01:27.499Z,93.80
2019-01-15T23:04:15.171Z,93.60
2019-01-15T23:06:48.196Z,93.70
2019-01-15T23:09:34.416Z,93.80
2019-01-15T23:12:31.472Z,93.90
2019-01-15T23:15:08.047Z,93.80
2019-01-15T23:18:02.275Z,93.90
2019-01-15T23:20:37.777Z,93.90
2019-01-15T23:23:13.560Z,94.10
2019-01-15T23:25:46.255Z,93.90
2019-01-15T23:28:19.311Z,93.80
2019-01-15T23:31:01.663Z,93.90
2019-01-15T23:33:34.368Z,93.80
2019-01-15T23:36:21.799Z,93.50
2019-01-15T23:38:58.080Z,93.40
2019-01-15T23:41:43.159Z,93.40
2019-01-15T23:44:16.159Z,93.10
2019-01-15T23:46:49.167Z,93.00
2019-01-15T23:49:19.463Z,92.80
2019-01-15T23:51:55.991Z,92.70
2019-01-15T23:54:28.971Z,92.80
2019-01-15T23:56:58.984Z,92.50
2019-01-15T23:59:31.919Z,92.60
